Time;durP1;ratioP1;P1;durP2;ratioP2;P2;SDS_P1;SDS_P2;PMS_P1;PMS_P2;Temp;Humidity;BMP_temperature;BMP_pressure;BME280_temperature;BME280_humidity;BME280_pressure;Samples;Min_cycle;Max_cycle;Signal;HPM_P1;HPM_P2
2022/05/12 00:00:35;;;;;;;9.82;5.40;;;;;;;15.68;85.38;100428.25;5589727;31;33802;-66
2022/05/12 00:03:38;;;;;;;12.85;6.00;;;;;;;15.61;86.31;100430.91;5589742;31;33931;-66
2022/05/12 00:06:41;;;;;;;13.07;5.95;;;;;;;15.59;86.69;100437.44;5590478;31;33978;-66
2022/05/12 00:09:43;;;;;;;16.20;5.95;;;;;;;15.60;86.75;100436.44;5589719;31;33207;-66
2022/05/12 00:12:46;;;;;;;9.27;5.85;;;;;;;15.53;87.40;100441.78;5590370;31;33869;-66
2022/05/12 00:15:49;;;;;;;11.57;5.93;;;;;;;15.50;88.81;100431.41;5590754;31;34210;-66
2022/05/12 00:18:52;;;;;;;13.35;6.68;;;;;;;15.56;90.09;100432.50;5576734;31;33859;-66
2022/05/12 00:21:56;;;;;;;9.95;6.82;;;;;;;15.58;90.22;100433.16;5590378;31;34506;-66
2022/05/12 00:24:58;;;;;;;9.65;6.97;;;;;;;15.65;91.65;100428.62;5590693;31;33904;-66
2022/05/12 00:28:01;;;;;;;11.85;6.85;;;;;;;15.67;90.58;100431.94;5590076;31;34499;-66
2022/05/12 00:31:03;;;;;;;9.57;6.50;;;;;;;15.66;90.69;100427.63;5589473;31;33951;-66
2022/05/12 00:34:08;;;;;;;14.43;6.70;;;;;;;15.62;91.57;100419.19;5590320;31;33953;-66
2022/05/12 00:37:10;;;;;;;14.38;6.50;;;;;;;15.60;91.70;100423.06;5590090;31;34765;-66
2022/05/12 00:40:15;;;;;;;9.75;6.68;;;;;;;15.53;92.21;100425.72;5589959;31;34494;-66
2022/05/12 00:43:48;;;;;;;10.27;6.75;;;;;;;15.55;92.62;100429.00;5590391;31;34071;-66
2022/05/12 00:46:52;;;;;;;12.30;6.85;;;;;;;15.55;92.34;100426.34;5576478;31;34061;-66
2022/05/12 00:49:55;;;;;;;13.35;6.45;;;;;;;15.48;92.99;100421.97;5590365;31;34131;-66
2022/05/12 00:53:01;;;;;;;12.98;7.00;;;;;;;15.43;93.14;100427.06;5590033;31;33817;-66
2022/05/12 00:56:08;;;;;;;11.68;6.90;;;;;;;15.42;93.26;100422.75;5589424;31;32620;-66
2022/05/12 00:59:20;;;;;;;7.72;6.25;;;;;;;15.41;93.61;100424.59;5589264;31;34605;-66
2022/05/12 01:02:24;;;;;;;9.57;6.97;;;;;;;15.34;94.89;100430.94;5590283;31;33918;-66
2022/05/12 01:05:28;;;;;;;9.27;6.37;;;;;;;15.34;94.07;100423.75;5589316;31;32683;-66
2022/05/12 01:08:31;;;;;;;10.93;7.00;;;;;;;15.53;93.48;100424.91;5589973;31;33980;-66
2022/05/12 01:11:34;;;;;;;12.80;7.20;;;;;;;15.59;92.75;100424.09;5589311;31;33026;-66
2022/05/12 01:14:37;;;;;;;14.73;7.45;;;;;;;15.45;94.07;100417.00;5590175;31;34464;-66
2022/05/12 01:17:40;;;;;;;8.63;6.45;;;;;;;15.30;94.58;100422.47;5589093;31;33897;-66
2022/05/12 01:20:43;;;;;;;14.98;7.07;;;;;;;15.23;94.67;100427.78;5588833;31;33874;-66
2022/05/12 01:23:48;;;;;;;11.52;6.60;;;;;;;15.16;95.00;100432.25;5588982;31;33841;-66
2022/05/12 01:26:51;;;;;;;12.57;6.80;;;;;;;15.11;95.06;100424.00;5589503;31;33936;-66
2022/05/12 01:29:57;;;;;;;12.25;7.62;;;;;;;15.01;95.95;100428.03;5589078;31;33877;-66
2022/05/12 01:32:59;;;;;;;11.00;6.78;;;;;;;14.94;96.39;100432.53;5589790;31;34603;-66
2022/05/12 01:36:03;;;;;;;11.10;7.05;;;;;;;14.90;97.20;100428.59;5589735;31;33870;-66
2022/05/12 01:39:08;;;;;;;10.55;7.60;;;;;;;14.83;98.04;100431.22;5588967;31;33012;-66
2022/05/12 01:42:11;;;;;;;14.25;7.70;;;;;;;14.79;98.85;100430.78;5589562;31;33969;-66
2022/05/12 01:45:15;;;;;;;13.62;7.47;;;;;;;14.88;99.36;100427.94;5588837;31;33884;-66
2022/05/12 01:48:18;;;;;;;13.88;7.30;;;;;;;15.18;97.46;100422.22;5575887;31;33349;-66
2022/05/12 01:51:21;;;;;;;11.85;7.55;;;;;;;15.41;96.37;100421.91;5588471;31;34074;-66
2022/05/12 01:54:25;;;;;;;20.52;7.22;;;;;;;15.37;95.75;100427.84;5588579;31;33384;-66
2022/05/12 01:57:29;;;;;;;10.93;7.75;;;;;;;15.48;94.61;100416.63;5589460;31;34028;-66
2022/05/12 02:00:33;;;;;;;14.82;8.35;;;;;;;15.66;92.90;100424.94;5589467;31;34589;-67
2022/05/12 02:03:35;;;;;;;11.70;8.15;;;;;;;15.56;93.65;100419.97;5588472;31;32949;-67
2022/05/12 02:06:38;;;;;;;10.60;7.15;;;;;;;15.59;93.35;100419.56;5588757;31;32242;-67
2022/05/12 02:09:41;;;;;;;14.23;7.72;;;;;;;15.61;93.06;100414.84;5589334;31;34250;-66
2022/05/12 02:12:44;;;;;;;16.05;8.23;;;;;;;15.62;92.60;100407.66;5588671;31;33101;-66
2022/05/12 02:15:47;;;;;;;18.77;7.97;;;;;;;15.60;92.64;100404.34;5588607;31;32502;-67
2022/05/12 02:18:53;;;;;;;15.98;8.98;;;;;;;15.46;95.56;100402.59;5589300;31;35143;-67
2022/05/12 02:21:58;;;;;;;18.48;7.93;;;;;;;15.50;94.39;100395.84;5588485;31;32344;-67
2022/05/12 02:25:00;;;;;;;11.73;7.40;;;;;;;15.50;93.20;100399.34;5589152;31;34278;-67
2022/05/12 02:28:03;;;;;;;12.85;7.82;;;;;;;15.51;93.51;100402.87;5588861;31;34457;-67
2022/05/12 02:31:07;;;;;;;11.05;7.50;;;;;;;15.42;92.94;100396.84;5589061;31;33838;-67
2022/05/12 02:34:09;;;;;;;11.57;8.05;;;;;;;15.45;92.43;100403.63;5589341;31;34031;-67
2022/05/12 02:37:12;;;;;;;11.80;7.22;;;;;;;15.41;92.24;100402.38;5589290;31;33791;-67
2022/05/12 02:40:17;;;;;;;13.90;7.55;;;;;;;15.37;93.45;100401.12;5589376;31;33916;-67
2022/05/12 02:43:23;;;;;;;10.35;6.65;;;;;;;15.31;94.02;100409.94;5588777;31;34208;-67
2022/05/12 02:46:26;;;;;;;12.02;7.00;;;;;;;15.32;92.87;100408.91;5587746;31;34127;-66
2022/05/12 02:49:29;;;;;;;11.65;8.02;;;;;;;15.35;92.73;100411.19;5588360;31;33916;-66
2022/05/12 02:52:36;;;;;;;12.37;7.20;;;;;;;15.42;91.49;100410.22;5588643;31;35210;-66
2022/05/12 02:55:39;;;;;;;13.45;6.78;;;;;;;15.38;91.55;100413.47;5588669;31;33918;-66
2022/05/12 02:58:42;;;;;;;11.38;6.60;;;;;;;15.33;91.29;100415.91;5588548;31;33959;-66
2022/05/12 03:01:45;;;;;;;14.35;6.85;;;;;;;15.36;92.15;100416.34;5588841;31;34442;-66
2022/05/12 03:04:47;;;;;;;10.25;6.70;;;;;;;15.32;91.26;100420.44;5590320;31;33057;-66
2022/05/12 03:07:51;;;;;;;9.50;6.65;;;;;;;15.35;91.57;100425.38;5590374;31;33086;-67
2022/05/12 03:10:54;;;;;;;11.05;6.97;;;;;;;15.15;93.00;100422.59;5590030;31;32958;-66
2022/05/12 03:13:59;;;;;;;13.57;6.93;;;;;;;15.20;91.55;100428.16;5590187;31;33251;-66
2022/05/12 03:17:02;;;;;;;9.95;6.15;;;;;;;15.24;91.21;100425.94;5590932;31;34484;-66
2022/05/12 03:20:09;;;;;;;9.13;6.18;;;;;;;15.20;91.99;100427.37;5590869;31;33910;-66
2022/05/12 03:23:13;;;;;;;9.55;7.03;;;;;;;15.23;91.74;100437.66;5589712;31;32308;-66
2022/05/12 03:26:17;;;;;;;12.73;6.80;;;;;;;15.10;92.43;100430.37;5590728;31;34629;-66
2022/05/12 03:29:19;;;;;;;10.63;6.97;;;;;;;15.06;92.64;100446.97;5589876;31;32523;-67
2022/05/12 03:32:23;;;;;;;12.82;6.80;;;;;;;15.07;92.30;100435.28;5590744;31;33794;-67
2022/05/12 03:35:25;;;;;;;13.18;6.82;;;;;;;14.96;93.40;100441.97;5590769;31;33712;-67
2022/05/12 03:38:28;;;;;;;10.85;7.15;;;;;;;14.97;94.24;100442.81;5590665;31;34525;-67
2022/05/12 03:41:31;;;;;;;14.82;7.85;;;;;;;14.96;93.07;100435.84;5589739;31;33019;-67
2022/05/12 03:44:46;;;;;;;10.88;7.00;;;;;;;15.06;92.08;100441.63;5590671;31;33880;-67
2022/05/12 03:47:49;;;;;;;10.23;6.95;;;;;;;15.15;92.50;100443.16;5590001;31;32410;-67
2022/05/12 03:50:51;;;;;;;11.50;6.93;;;;;;;15.25;90.82;100443.59;5590515;31;33963;-67
2022/05/12 03:53:54;;;;;;;9.88;6.97;;;;;;;15.29;90.22;100438.72;5590744;31;34454;-67
2022/05/12 03:56:57;;;;;;;10.20;7.03;;;;;;;15.26;91.23;100447.94;5590503;31;33998;-67
2022/05/12 04:00:00;;;;;;;9.85;7.35;;;;;;;15.38;89.73;100448.22;5590492;31;33820;-67
2022/05/12 04:03:11;;;;;;;10.23;6.40;;;;;;;15.42;89.58;100441.47;5589787;31;32592;-67
2022/05/12 04:06:14;;;;;;;8.70;6.65;;;;;;;15.53;90.82;100444.44;5576943;31;32387;-67
2022/05/12 04:09:17;;;;;;;9.30;6.75;;;;;;;15.37;90.72;100457.25;5589721;31;33351;-68
2022/05/12 04:12:20;;;;;;;10.80;6.45;;;;;;;15.27;91.74;100454.94;5589259;31;33040;-67
2022/05/12 04:15:22;;;;;;;14.82;7.43;;;;;;;15.28;91.33;100448.59;5576661;31;33893;-67
2022/05/12 04:18:26;;;;;;;10.77;6.40;;;;;;;15.34;91.24;100452.31;5589711;31;32386;-67
2022/05/12 04:21:30;;;;;;;7.95;6.43;;;;;;;15.38;92.34;100454.41;5576529;31;33176;-67
2022/05/12 04:24:33;;;;;;;14.52;7.25;;;;;;;15.60;90.39;100453.31;5589641;31;32753;-67
2022/05/12 04:27:40;;;;;;;10.38;6.40;;;;;;;15.69;87.83;100453.97;5590152;31;34290;-67
2022/05/12 04:30:43;;;;;;;9.95;6.70;;;;;;;15.82;87.19;100458.56;5589551;31;33035;-67
2022/05/12 04:37:07;;;;;;;20.40;6.70;;;;;;;16.11;85.69;100460.09;5589380;31;33220;-67
2022/05/12 04:40:15;;;;;;;15.07;6.97;;;;;;;16.20;84.77;100465.06;5576337;31;33913;-67
2022/05/12 04:43:18;;;;;;;13.90;6.87;;;;;;;16.17;85.32;100468.13;5589013;31;32553;-67
2022/05/12 04:46:28;;;;;;;8.95;6.28;;;;;;;16.27;86.02;100468.56;5589347;31;33244;-68
2022/05/12 04:49:31;;;;;;;11.60;6.97;;;;;;;16.40;85.41;100476.66;5588973;31;32431;-68
2022/05/12 04:52:34;;;;;;;8.65;6.28;;;;;;;16.41;84.58;100480.16;5589873;31;33962;-68
2022/05/12 04:55:38;;;;;;;13.38;6.50;;;;;;;16.51;85.14;100485.91;5589380;31;32275;-67
2022/05/12 04:58:40;;;;;;;12.75;7.28;;;;;;;16.64;83.51;100477.13;5589935;31;33922;-67
2022/05/12 05:01:43;;;;;;;11.43;6.50;;;;;;;16.67;83.09;100482.88;5589323;31;32354;-66
2022/05/12 05:04:46;;;;;;;11.90;6.70;;;;;;;16.84;80.87;100484.16;5589808;31;33878;-67
2022/05/12 05:07:49;;;;;;;9.02;6.47;;;;;;;16.79;80.83;100485.78;5588807;31;34207;-67
2022/05/12 05:10:55;;;;;;;9.45;6.47;;;;;;;16.86;80.12;100490.09;5589014;31;33199;-67
2022/05/12 05:13:58;;;;;;;11.57;7.22;;;;;;;16.98;79.65;100489.50;5589233;31;32384;-68
2022/05/12 05:17:01;;;;;;;10.98;7.00;;;;;;;17.08;79.60;100484.53;5589464;31;34304;-68
2022/05/12 05:20:06;;;;;;;19.65;7.65;;;;;;;17.25;79.33;100488.44;5589633;31;34732;-68
2022/05/12 05:23:09;;;;;;;16.90;7.45;;;;;;;17.41;77.42;100495.22;5589473;31;34149;-67
2022/05/12 05:26:12;;;;;;;12.70;7.00;;;;;;;17.55;76.54;100486.94;5589585;31;34205;-68
2022/05/12 05:29:15;;;;;;;12.15;7.28;;;;;;;17.63;75.99;100484.03;5589068;31;34086;-68
2022/05/12 05:32:18;;;;;;;12.00;6.57;;;;;;;17.77;74.81;100488.34;5588801;31;32942;-68
2022/05/12 05:35:22;;;;;;;12.77;6.60;;;;;;;18.04;73.28;100489.06;5588636;31;32561;-69
2022/05/12 05:38:25;;;;;;;13.65;6.37;;;;;;;18.20;72.65;100490.44;5588496;31;32645;-68
2022/05/12 05:41:28;;;;;;;9.25;6.05;;;;;;;18.27;71.65;100480.47;5588148;31;35241;-68
2022/05/12 05:44:32;;;;;;;12.45;6.55;;;;;;;18.45;71.71;100494.00;5588976;31;34739;-68
2022/05/12 05:47:35;;;;;;;11.95;6.55;;;;;;;18.51;72.02;100487.75;5575567;31;33448;-68
2022/05/12 05:54:03;;;;;;;9.60;6.10;;;;;;;18.71;69.17;100495.72;5587796;31;34093;-68
2022/05/12 05:57:06;;;;;;;10.02;6.07;;;;;;;18.81;68.63;100493.38;5588953;31;34003;-68
2022/05/12 06:00:09;;;;;;;16.00;6.45;;;;;;;18.92;68.69;100492.66;5589299;31;34563;-68
2022/05/12 06:03:13;;;;;;;9.98;6.43;;;;;;;19.20;69.35;100502.16;5587404;31;33284;-68
2022/05/12 06:06:18;;;;;;;12.55;6.25;;;;;;;19.22;67.23;100500.88;5587998;31;33417;-68
2022/05/12 06:09:21;;;;;;;12.40;6.55;;;;;;;19.08;67.51;100500.16;5588425;31;32917;-68
2022/05/12 06:12:24;;;;;;;9.45;5.97;;;;;;;19.12;67.78;100498.69;5588272;31;33125;-68
2022/05/12 06:15:27;;;;;;;11.57;6.45;;;;;;;19.32;69.01;100498.50;5588444;31;34433;-68
2022/05/12 06:18:29;;;;;;;16.65;6.25;;;;;;;19.49;66.91;100506.84;5588121;31;32351;-68
2022/05/12 06:21:36;;;;;;;12.02;6.43;;;;;;;19.74;65.95;100507.63;5588289;31;32662;-68
2022/05/12 06:24:38;;;;;;;11.63;6.40;;;;;;;19.84;67.03;100501.72;5588299;31;34552;-67
2022/05/12 06:27:44;;;;;;;9.00;6.05;;;;;;;19.96;65.25;100511.50;5587689;31;34383;-68
2022/05/12 06:30:46;;;;;;;11.63;6.15;;;;;;;20.12;65.26;100503.84;5588885;31;35045;-68
2022/05/12 06:33:50;;;;;;;7.53;5.37;;;;;;;20.19;65.47;100497.31;5588774;31;34230;-68
2022/05/12 06:36:59;;;;;;;7.85;5.35;;;;;;;20.37;63.41;100500.03;5575225;31;33170;-67
2022/05/12 06:40:03;;;;;;;11.90;5.87;;;;;;;20.37;62.94;100505.41;5588265;31;32360;-67
2022/05/12 06:43:08;;;;;;;12.25;5.35;;;;;;;20.44;62.30;100501.78;5587823;31;33547;-67
2022/05/12 06:46:17;;;;;;;10.05;5.57;;;;;;;20.56;62.86;100503.47;5574555;31;33246;-67
2022/05/12 06:49:20;;;;;;;10.40;5.40;;;;;;;20.69;61.94;100495.19;5587625;31;32630;-65
2022/05/12 06:52:23;;;;;;;6.95;5.10;;;;;;;20.89;61.26;100504.81;5587218;31;33230;-66
2022/05/12 06:55:27;;;;;;;16.85;5.97;;;;;;;21.12;60.33;100505.69;5574790;31;33436;-67
2022/05/12 06:58:30;;;;;;;9.55;5.05;;;;;;;21.31;59.62;100508.28;5588318;31;34520;-67
2022/05/12 07:01:33;;;;;;;10.68;5.47;;;;;;;21.64;59.60;100511.19;5587662;31;33162;-68
2022/05/12 07:04:36;;;;;;;9.02;5.18;;;;;;;21.61;57.95;100507.09;5587041;31;33277;-67
2022/05/12 07:07:40;;;;;;;10.63;5.00;;;;;;;21.82;58.11;100508.37;5587385;31;32442;-67
2022/05/12 07:10:43;;;;;;;12.77;5.28;;;;;;;21.93;57.35;100512.09;5587482;31;32330;-67
2022/05/12 07:13:46;;;;;;;9.43;5.32;;;;;;;21.87;57.71;100513.06;5588124;31;33900;-68
2022/05/12 07:16:49;;;;;;;7.87;4.93;;;;;;;22.36;56.26;100514.34;5588084;31;34604;-67
2022/05/12 07:26:34;;;;;;;8.90;4.90;;;;;;;23.47;54.36;100501.91;5587518;31;32261;-67
2022/05/12 07:26:40;;;;;;;8.30;5.37;;;;;;;23.57;53.32;100504.75;5575975;31;32690;-65
2022/05/12 07:29:44;;;;;;;7.30;4.20;;;;;;;24.46;49.98;100497.97;5587452;31;33965;-66
2022/05/12 07:32:47;;;;;;;6.18;4.45;;;;;;;25.52;48.70;100500.75;5587247;31;32265;-66
2022/05/12 07:35:49;;;;;;;9.70;4.80;;;;;;;26.17;45.76;100505.69;5587656;31;33946;-66
2022/05/12 07:38:55;;;;;;;7.82;4.28;;;;;;;26.09;45.47;100500.78;5586996;31;32970;-67
2022/05/12 07:42:00;;;;;;;11.52;4.28;;;;;;;26.23;44.78;100501.13;5587054;31;32462;-67
2022/05/12 07:45:05;;;;;;;7.72;4.30;;;;;;;26.37;44.60;100503.06;5586526;31;33485;-66
2022/05/12 07:48:08;;;;;;;6.55;4.57;;;;;;;26.75;43.55;100495.47;5588029;31;33891;-65
2022/05/12 07:51:10;;;;;;;7.62;4.40;;;;;;;26.84;43.41;100488.41;5589332;31;35956;-66
2022/05/12 07:54:13;;;;;;;9.35;4.95;;;;;;;25.68;45.79;100491.63;5576354;31;36423;-66
2022/05/12 07:57:16;;;;;;;7.62;4.10;;;;;;;26.54;43.27;100488.37;5590162;31;35099;-67
2022/05/12 08:00:19;;;;;;;7.12;4.07;;;;;;;27.45;41.70;100488.37;5589165;31;33843;-66
2022/05/12 08:03:22;;;;;;;9.40;4.10;;;;;;;28.13;40.19;100489.50;5590042;31;34578;-67
2022/05/12 08:06:25;;;;;;;7.32;3.90;;;;;;;28.67;40.96;100492.16;5589299;31;33617;-67
2022/05/12 08:09:28;;;;;;;8.32;4.12;;;;;;;28.69;38.92;100498.16;5576321;31;36103;-67
2022/05/12 08:12:32;;;;;;;8.77;4.28;;;;;;;27.62;40.71;100497.06;5589380;31;33101;-67
2022/05/12 08:15:34;;;;;;;7.18;4.07;;;;;;;27.70;40.62;100499.22;5590049;31;33921;-67
2022/05/12 08:18:37;;;;;;;9.45;4.03;;;;;;;27.66;40.29;100493.50;5590507;31;33336;-66
2022/05/12 08:21:40;;;;;;;5.93;3.67;;;;;;;28.64;38.72;100502.84;5588953;31;32654;-66
2022/05/12 08:24:43;;;;;;;9.40;4.15;;;;;;;28.60;39.76;100493.59;5589488;31;33975;-66
2022/05/12 08:27:47;;;;;;;5.82;4.07;;;;;;;28.44;38.52;100495.59;5589657;31;34346;-66
2022/05/12 08:30:51;;;;;;;5.97;3.37;;;;;;;28.78;38.42;100492.94;5590316;31;33942;-67
2022/05/12 08:33:54;;;;;;;6.28;4.07;;;;;;;28.43;39.36;100493.97;5589044;31;33152;-65
2022/05/12 08:36:56;;;;;;;8.65;3.90;;;;;;;28.42;38.92;100500.50;5576099;31;33367;-66
2022/05/12 08:40:00;;;;;;;9.82;4.07;;;;;;;29.76;36.64;100493.34;5588899;31;34199;-65
2022/05/12 08:43:17;;;;;;;7.25;3.65;;;;;;;29.42;36.77;100492.62;5590070;31;34643;-66
2022/05/12 08:46:26;;;;;;;7.68;3.75;;;;;;;30.04;35.79;100499.84;5588912;31;32884;-66
2022/05/12 08:49:41;;;;;;;9.50;3.55;;;;;;;29.78;35.80;100495.75;5575828;31;32608;-67
2022/05/12 08:52:57;;;;;;;7.72;3.62;;;;;;;31.27;33.53;100497.69;5589764;31;33870;-67
2022/05/12 08:56:00;;;;;;;8.65;3.47;;;;;;;31.17;33.23;100492.41;5589646;31;34625;-67
2022/05/12 08:59:03;;;;;;;9.85;3.35;;;;;;;32.39;31.62;100495.44;5588047;31;33320;-67
2022/05/12 09:02:28;;;;;;;5.57;3.03;;;;;;;30.90;33.10;100484.87;5588740;31;33100;-68
2022/05/12 09:05:43;;;;;;;8.35;3.25;;;;;;;31.96;31.61;100487.56;5588871;31;33295;-67
2022/05/12 09:08:57;;;;;;;6.57;3.12;;;;;;;33.16;29.63;100490.56;5588958;31;33312;-66
2022/05/12 09:12:05;;;;;;;7.12;2.97;;;;;;;33.78;29.01;100494.06;5588492;31;32752;-68
2022/05/12 09:15:16;;;;;;;10.10;3.37;;;;;;;33.93;28.46;100493.63;5588468;31;32854;-67
2022/05/12 09:18:27;;;;;;;6.12;3.37;;;;;;;33.87;30.12;100496.84;5588616;31;33009;-66
2022/05/12 09:21:35;;;;;;;8.55;2.92;;;;;;;33.63;28.56;100495.28;5588616;31;33075;-66
2022/05/12 09:24:38;;;;;;;7.93;3.37;;;;;;;33.89;28.35;100489.88;5588853;31;33197;-67
2022/05/12 09:27:44;;;;;;;4.78;3.00;;;;;;;34.51;27.27;100497.09;5588445;31;32718;-65
2022/05/12 09:30:50;;;;;;;6.40;2.50;;;;;;;34.04;29.52;100494.91;5587988;31;32444;-66
2022/05/12 09:33:55;;;;;;;10.18;2.70;;;;;;;34.32;28.45;100491.94;5588188;31;32296;-67
2022/05/12 09:37:14;;;;;;;6.20;3.35;;;;;;;33.53;29.07;100492.00;5589061;31;33799;-67
2022/05/12 09:40:22;;;;;;;5.72;2.95;;;;;;;33.77;28.88;100497.94;5588074;31;32028;-67
2022/05/12 09:43:31;;;;;;;6.53;3.08;;;;;;;34.09;28.75;100487.63;5574959;31;33242;-66
2022/05/12 09:46:34;;;;;;;5.72;2.90;;;;;;;34.46;28.22;100493.38;5589136;31;34042;-67
2022/05/12 09:49:42;;;;;;;10.02;2.45;;;;;;;35.48;26.13;100490.78;5588681;31;32402;-67
2022/05/12 09:52:57;;;;;;;4.55;2.67;;;;;;;34.89;27.29;100489.81;5589523;31;32265;-66
2022/05/12 09:56:23;;;;;;;6.32;2.60;;;;;;;35.38;26.71;100488.41;5591634;31;32371;-65
2022/05/12 09:59:29;;;;;;;5.65;2.97;;;;;;;35.37;25.78;100478.50;5575184;31;33041;-67
2022/05/12 10:09:32;;;;;;;5.55;2.95;;;;;;;37.72;23.89;100473.06;5579726;31;34235;-67
2022/05/12 10:12:46;;;;;;;7.28;2.40;;;;;;;36.67;23.66;100468.25;5587633;31;32381;-66
2022/05/12 10:15:53;;;;;;;4.68;2.62;;;;;;;36.69;24.04;100470.69;5589657;31;33804;-68
2022/05/12 10:19:08;;;;;;;7.65;2.60;;;;;;;37.31;23.09;100463.00;5589088;31;34562;-66
2022/05/12 10:22:35;;;;;;;6.62;2.35;;;;;;;37.42;23.75;100455.84;5587801;31;32319;-67
2022/05/12 10:26:16;;;;;;;4.53;1.98;;;;;;;38.84;21.38;100471.28;5589601;31;33618;-67
2022/05/12 10:29:44;;;;;;;4.45;2.22;;;;;;;38.83;21.07;100458.56;5581021;31;225974;-66
2022/05/12 10:32:57;;;;;;;5.97;2.30;;;;;;;39.06;21.93;100445.75;5588912;31;34644;-67
2022/05/12 10:36:22;;;;;;;3.30;2.17;;;;;;;40.77;19.69;100445.66;5575148;31;32356;-67
2022/05/12 10:40:05;;;;;;;4.68;2.20;;;;;;;39.27;20.45;100445.47;5588867;31;33832;-67
2022/05/12 10:43:17;;;;;;;6.72;2.40;;;;;;;39.43;20.77;100437.16;5587785;31;32887;-66
2022/05/12 10:46:29;;;;;;;3.00;2.15;;;;;;;39.82;20.16;100446.44;5588666;31;33959;-66
2022/05/12 10:49:44;;;;;;;3.30;2.15;;;;;;;39.63;20.19;100427.72;5587655;31;32526;-67
2022/05/12 10:52:57;;;;;;;3.50;2.35;;;;;;;39.42;20.29;100446.63;5587065;31;33199;-66
2022/05/12 10:56:13;;;;;;;3.80;1.98;;;;;;;39.95;19.94;100439.56;5587608;31;32779;-67
2022/05/12 10:59:52;;;;;;;3.87;2.22;;;;;;;38.03;21.76;100439.25;5587568;31;31639;-66
2022/05/12 11:03:01;;;;;;;5.28;2.10;;;;;;;39.25;21.82;100439.47;5571330;31;32656;-67
2022/05/12 11:06:08;;;;;;;2.40;2.00;;;;;;;41.28;18.91;100439.81;5587356;31;33440;-67
2022/05/12 11:09:32;;;;;;;4.43;2.30;;;;;;;38.44;21.34;100437.28;5588247;31;34628;-66
2022/05/12 11:12:43;;;;;;;3.10;1.87;;;;;;;37.07;23.18;100431.72;5587209;31;32523;-67
2022/05/12 11:15:58;;;;;;;3.62;2.12;;;;;;;36.30;24.32;100431.34;5587982;31;35130;-67
2022/05/12 11:19:24;;;;;;;4.25;2.10;;;;;;;38.17;22.33;100417.50;5587112;31;32880;-66
2022/05/12 11:22:31;;;;;;;4.43;2.45;;;;;;;37.78;23.24;100419.06;5587767;31;33999;-66
2022/05/12 11:25:34;;;;;;;5.18;2.37;;;;;;;38.58;21.70;100419.09;5576408;31;34749;-67
2022/05/12 11:32:35;;;;;;;3.22;1.90;;;;;;;41.25;19.13;100411.94;5590299;31;33950;-68
2022/05/12 11:35:51;;;;;;;4.60;2.28;;;;;;;41.57;17.86;100402.91;5589280;31;33360;-67
2022/05/12 11:38:57;;;;;;;2.80;2.03;;;;;;;42.57;18.30;100395.81;5576866;31;32569;-67
2022/05/12 11:42:15;;;;;;;5.97;2.00;;;;;;;40.91;17.98;100402.59;5589575;31;32626;-67
2022/05/12 11:45:48;;;;;;;3.05;1.65;;;;;;;41.73;16.70;100397.16;5589676;31;34193;-67
2022/05/12 11:49:01;;;;;;;4.15;1.85;;;;;;;41.10;17.51;100402.56;5577728;31;34483;-67
2022/05/12 11:52:29;;;;;;;2.53;1.60;;;;;;;41.48;18.15;100402.38;5590342;31;33897;-67
2022/05/12 11:55:35;;;;;;;2.85;1.60;;;;;;;41.98;17.31;100389.94;5590527;31;35222;-66
2022/05/12 11:59:08;;;;;;;3.20;1.70;;;;;;;40.84;17.85;100397.69;5589617;31;32687;-67
2022/05/12 12:02:32;;;;;;;4.40;2.00;;;;;;;39.53;19.16;100387.44;5590480;31;32669;-67
2022/05/12 12:05:36;;;;;;;2.42;1.90;;;;;;;40.94;17.93;100390.72;5589183;31;33131;-67
2022/05/12 12:08:46;;;;;;;3.50;1.90;;;;;;;42.68;16.82;100391.19;5589247;31;32680;-67
2022/05/12 12:11:49;;;;;;;10.82;2.00;;;;;;;44.24;15.49;100393.06;5589432;31;32448;-66
2022/05/12 12:14:59;;;;;;;3.72;2.05;;;;;;;44.15;15.23;100384.25;5589525;31;32261;-66
2022/05/12 12:18:18;;;;;;;3.87;2.00;;;;;;;42.31;16.70;100380.84;5589185;31;32811;-68
2022/05/12 12:21:38;;;;;;;5.43;1.90;;;;;;;42.62;17.01;100373.94;5589924;31;34592;-67
2022/05/12 12:24:50;;;;;;;2.22;1.50;;;;;;;42.16;16.30;100375.44;5589970;31;34615;-68
2022/05/12 12:27:52;;;;;;;4.32;1.50;;;;;;;41.74;15.99;100378.44;5589461;31;34045;-67
2022/05/12 12:30:55;;;;;;;2.30;1.40;;;;;;;42.07;14.91;100376.50;5589085;31;33216;-69
2022/05/12 12:34:11;;;;;;;7.12;1.62;;;;;;;43.92;11.96;100378.94;5575795;31;34184;-69
2022/05/12 12:37:44;;;;;;;3.65;1.52;;;;;;;40.75;15.15;100377.66;5590058;31;33868;-68
2022/05/12 12:40:47;;;;;;;3.10;1.58;;;;;;;40.98;14.08;100377.66;5589164;31;33241;-69
2022/05/12 12:43:57;;;;;;;6.75;1.50;;;;;;;40.02;15.84;100370.25;5590322;31;33874;-67
2022/05/12 12:47:09;;;;;;;2.53;1.35;;;;;;;40.61;14.86;100371.84;5588992;31;32497;-68
2022/05/12 12:50:27;;;;;;;1.77;1.23;;;;;;;41.42;14.38;100370.44;5590287;31;34270;-66
2022/05/12 12:57:08;;;;;;;2.12;1.33;;;;;;;41.75;14.61;100353.00;5589475;31;34541;-69
2022/05/12 13:00:23;;;;;;;3.30;1.27;;;;;;;41.34;14.91;100357.59;5589732;31;34034;-67
2022/05/12 13:03:31;;;;;;;4.00;1.40;;;;;;;40.53;15.62;100356.16;5588969;31;33378;-68
2022/05/12 13:06:39;;;;;;;2.42;1.30;;;;;;;40.99;16.05;100346.69;5588893;31;32364;-66
2022/05/12 13:09:51;;;;;;;1.70;1.30;;;;;;;41.00;15.46;100353.06;5589236;31;34007;-67
2022/05/12 13:13:04;;;;;;;5.65;1.30;;;;;;;41.54;15.20;100347.94;5589115;31;32647;-68
2022/05/12 13:16:14;;;;;;;1.70;1.17;;;;;;;41.31;14.85;100352.75;5589042;31;32389;-67
2022/05/12 13:19:26;;;;;;;2.20;1.60;;;;;;;39.53;16.36;100348.56;5588786;31;32579;-68
2022/05/12 13:22:39;;;;;;;3.50;1.52;;;;;;;41.71;14.97;100334.63;5589043;31;33544;-68
2022/05/12 13:25:42;;;;;;;2.17;1.30;;;;;;;38.26;17.98;100345.28;5589788;31;34307;-68
2022/05/12 13:28:45;;;;;;;3.08;1.50;;;;;;;39.06;17.53;100334.75;5588566;31;34111;-70
2022/05/12 13:32:30;;;;;;;2.90;1.70;;;;;;;39.31;17.20;100338.09;5589444;31;34374;-69
2022/05/12 13:35:34;;;;;;;5.15;1.75;;;;;;;39.71;16.94;100346.16;5587933;31;33996;-67
2022/05/12 13:38:45;;;;;;;2.40;1.55;;;;;;;40.52;16.36;100338.72;5589167;31;33975;-67
2022/05/12 13:41:49;;;;;;;3.30;1.55;;;;;;;38.52;18.23;100333.75;5589604;31;33789;-68
2022/05/12 13:44:59;;;;;;;4.00;1.77;;;;;;;39.81;17.51;100328.13;5587476;31;33922;-67
2022/05/12 13:48:02;;;;;;;3.05;1.48;;;;;;;39.92;17.59;100324.41;5574224;31;33934;-67
2022/05/12 13:51:05;;;;;;;4.40;1.95;;;;;;;40.14;18.01;100319.25;5588558;31;33958;-67
2022/05/12 13:54:30;;;;;;;3.15;1.60;;;;;;;38.08;19.38;100319.88;5587345;31;33304;-67
2022/05/12 13:57:42;;;;;;;2.78;1.70;;;;;;;39.04;17.98;100314.06;5586798;31;34139;-68
2022/05/12 14:00:53;;;;;;;3.05;1.75;;;;;;;40.60;17.51;100311.81;5587106;31;33316;-66
2022/05/12 14:04:13;;;;;;;1.85;1.50;;;;;;;38.92;18.08;100308.66;5586746;31;34369;-67
2022/05/12 14:07:26;;;;;;;3.92;1.80;;;;;;;35.91;21.14;100316.62;5587668;31;34492;-66
2022/05/12 14:10:33;;;;;;;2.58;1.67;;;;;;;36.47;21.31;100309.59;5586238;31;32873;-68
2022/05/12 14:20:26;;;;;;;2.75;1.58;;;;;;;35.46;22.37;100307.38;5587075;31;34539;-68
2022/05/12 14:23:29;;;;;;;3.03;1.70;;;;;;;34.79;23.50;100306.28;5587342;31;34298;-67
2022/05/12 14:26:31;;;;;;;6.20;1.80;;;;;;;33.83;24.80;100301.28;5585649;31;32734;-68
2022/05/12 14:29:34;;;;;;;2.50;1.73;;;;;;;33.41;25.43;100293.75;5573491;31;34040;-67
2022/05/12 14:32:46;;;;;;;6.62;2.10;;;;;;;32.02;26.55;100290.66;5587038;31;35203;-67
2022/05/12 14:35:48;;;;;;;5.93;1.75;;;;;;;32.22;27.05;100280.03;5586639;31;33275;-67
2022/05/12 14:38:52;;;;;;;2.50;1.80;;;;;;;31.72;27.76;100287.53;5586512;31;32873;-67
2022/05/12 14:42:00;;;;;;;2.35;1.85;;;;;;;31.74;28.09;100285.31;5586045;31;34494;-67
2022/05/12 14:45:03;;;;;;;5.97;2.00;;;;;;;31.27;28.09;100281.16;5586000;31;32500;-69
2022/05/12 14:48:10;;;;;;;6.35;1.65;;;;;;;31.42;28.20;100279.97;5585162;31;32947;-66
2022/05/12 14:51:16;;;;;;;6.43;2.20;;;;;;;31.49;28.66;100283.94;5586341;31;34086;-68
2022/05/12 14:54:19;;;;;;;8.75;1.80;;;;;;;31.40;28.28;100276.75;5586106;31;34510;-66
2022/05/12 14:57:23;;;;;;;4.45;1.65;;;;;;;30.98;27.79;100273.19;5587200;31;33383;-67